Flight Track Log - Related Links

Times and Time Zones

All times are in EDT time to prevent confusion due to time zone crossing. See the GJS6221 flight status page for this flight to view local times or setup timezone preferences in your user account.

Time Position Orientation Groundspeed Altitude Reporting Facility
EDT Latitude Longitude Course Direction KTS MPH feet Rate Location/Type
Tue 07:17:11 AM 45.4333 -73.7500 189° South 150 173 1,400  Level Montreal Center
Tue 07:18:11 AM 45.4000 -73.8000 226° Southwest 200 230 3,600 2,400 Climbing Montreal Center
Tue 07:19:11 AM 45.3333 -73.8167 190° South 260 299 6,200 2,700 Climbing Montreal Center
Tue 07:20:11 AM 45.2667 -73.8667 208° Southwest 270 311 9,000 2,800 Climbing Montreal Center
Tue 07:21:11 AM 45.2000 -73.9000 199° South 280 322 11,800 2,550 Climbing Montreal Center
Tue 07:22:00 AM 44.8978 -74.0916 189° South  Level FlightAware Approximate
Tue 07:22:11 AM 45.1167 -73.9333 196° South 300 345 14,100  Level Montreal Center
Tue 07:23:11 AM 45.0333 -73.9333 180° South 310 357 16,800 2,350 Climbing Montreal Center
Tue 07:24:11 AM 44.9333 -73.9167 173° South 330 380 18,800 2,000 Climbing Montreal Center
Tue 07:25:11 AM 44.8333 -73.9167 180° South 350 403 20,800 1,900 Climbing Montreal Center
Tue 07:26:11 AM 44.7333 -73.9000 173° South 360 414 22,600 1,500 Climbing Montreal Center
Tue 07:27:11 AM 44.6333 -73.9000 180° South 380 437 23,800 1,350 Climbing Montreal Center
Tue 07:28:11 AM 44.5333 -73.9000 180° South 400 460 25,300 1,500 Climbing Montreal Center
Tue 07:29:11 AM 44.4167 -73.8833 174° South 400 460 26,800 1,500 Climbing Montreal Center
Tue 07:30:11 AM 44.3000 -73.8833 180° South 410 472 28,300 1,500 Climbing Montreal Center
Tue 07:31:11 AM 44.1833 -73.8667 174° South 410 472 29,800 1,450 Climbing Montreal Center
Tue 07:32:11 AM 44.0667 -73.8667 180° South 420 483 31,200 1,200 Climbing Montreal Center
Tue 07:33:11 AM 43.9500 -73.8500 174° South 420 483 32,200 900 Climbing Montreal Center
Tue 07:34:11 AM 43.8333 -73.8667 186° South 430 495 33,000 300 Climbing Montreal Center
Tue 07:35:11 AM 43.7167 -73.8333 168° South 440 506 32,800 -450 Descending Montreal Center
Tue 07:36:11 AM 43.5833 -73.8500 185° South 440 506 32,100 -750 Descending Montreal Center
Tue 07:37:11 AM 43.4667 -73.8333 174° South 440 506 31,300 -816 Descending Montreal Center
Tue 07:38:38 AM 43.2983 -73.8350 180° South 439 505 30,100 -816 Descending Boston Center
Tue 07:39:38 AM 43.1819 -73.8267 177° South 434 499 29,300 -1,190 Descending Boston Center
Tue 07:40:39 AM 43.0631 -73.8242 179° South 429 494 27,700 -1,587 Descending Boston Center
Tue 07:41:39 AM 42.9486 -73.8158 177° South 419 482 26,100 -1,373 Descending Boston Center
Tue 07:42:37 AM 42.8589 -73.8108 178° South 412 474 25,000 -1,289 Descending Boston Center
Tue 07:43:40 AM 42.7258 -73.8025 177° South 406 467 23,500 -1,550 Descending Boston Center
Tue 07:44:37 AM 42.6383 -73.7836 171° South 406 467 21,900 -1,322 Descending Boston Center
Tue 07:45:38 AM 42.5303 -73.7642 172° South 387 445 20,900 -1,100 Descending Boston Center
Tue 07:46:37 AM 42.4181 -73.7394 171° South 382 440 19,700 -1,109 Descending Boston Center
Tue 07:47:37 AM 42.3181 -73.7206 172° South 372 428 18,700 -843 Descending Boston Center
Tue 07:48:38 AM 42.2283 -73.7269 183° South 360 414 18,000 -344 Descending Boston Center
Tue 07:49:39 AM 42.1222 -73.7333 183° South 366 421 18,000  Level Boston Center
Tue 07:50:37 AM 42.0219 -73.7425 184° South 366 421 18,000 -353 Level Boston Center
Tue 07:51:38 AM 41.9281 -73.7517 184° South 359 413 17,300 -885 Descending Boston Center
Tue 07:52:39 AM 41.8342 -73.7581 183° South 348 400 16,200 -984 Descending Boston Center
Tue 07:53:40 AM 41.7425 -73.7644 183° South 343 395 15,300 -1,017 Descending Boston Center
Tue 07:54:37 AM 41.6486 -73.7736 184° South 343 395 14,200 -1,190 Descending Boston Center
Tue 07:55:41 AM 41.5500 -73.7833 184° South 328 377 12,900 -1,678 Descending New York TRACON
Tue 07:56:35 AM 41.4667 -73.7833 180° South 318 366 10,900 -1,722 Descending New York TRACON
Tue 07:57:29 AM 41.4000 -73.8000 191° South 284 327 9,800 -1,150 Descending New York TRACON
Tue 07:58:35 AM 41.3167 -73.7667 163° South 290 334 8,600 -1,048 Descending New York TRACON
Tue 07:59:35 AM 41.2500 -73.7167 151° Southeast 283 326 7,600 -1,000 Descending New York TRACON
Tue 08:00:29 AM 41.1833 -73.6667 151° Southeast 278 320 6,700 -947 Descending New York TRACON
Tue 08:01:29 AM 41.1333 -73.6000 135° Southeast 281 323 5,800 -1,000 Descending New York TRACON
Tue 08:02:29 AM 41.0667 -73.6333 201° Southwest 269 310 4,700 -850 Descending New York TRACON
Tue 08:03:29 AM 41.0000 -73.7000 217° Southwest 267 307 4,100 -300 Descending New York TRACON
Tue 08:04:29 AM 40.9500 -73.7667 225° Southwest 251 289 4,100  Level New York TRACON
Tue 08:05:29 AM 40.9167 -73.8333 237° Southwest 253 291 4,100  Level New York TRACON
Tue 08:06:29 AM 40.8667 -73.9167 232° Southwest 250 288 4,100  Level New York TRACON
Tue 08:07:23 AM 40.8167 -73.9667 217° Southwest 252 290 4,100  Level New York TRACON
Tue 08:08:23 AM 40.7667 -74.0000 207° Southwest 203 234 4,100 -333 Level New York TRACON
Tue 08:09:29 AM 40.7167 -74.0000 180° South 190 219 3,400 -1,000 Descending New York TRACON
Tue 08:10:23 AM 40.7000 -73.9500 114° Southeast 187 215 2,100 -1,250 Descending New York TRACON
Tue 08:11:29 AM 40.7333 -73.9167 37° Northeast 139 160 900 -1,091 Descending New York TRACON

Login

Don't have an account? Register now (free) for customized features, flight alerts, and more!